This is the latest recevied weather packets stored in our database for station/object W1QED. If no packets are shown the sender has not sent any weather packets the latest 1 day(s).
| Time | Temp. | Humidity | Pressure | Rain* | Wind** | Luminosity | Snow |
|---|---|---|---|---|---|---|---|
| 1778010649 | 26.67° C | 21% | 1005.4 hPa | 0 mm | 6.26 m/s, 198° | - | - |
| 1778010355 | 27.22° C | 21% | 1005.2 hPa | 0 mm | 5.36 m/s, 198° | - | - |
| 1778010048 | 27.22° C | 23% | 1005.4 hPa | 0 mm | 4.47 m/s, 200° | - | - |
| 1778009746 | 26.67° C | 21% | 1005.6 hPa | 0 mm | 6.26 m/s, 226° | - | - |
| 1778009464 | 26.67° C | 20% | 1005.4 hPa | 0 mm | 7.6 m/s, 231° | - | - |
| 1778009145 | 26.67° C | 20% | 1005.4 hPa | 0 mm | 7.15 m/s, 214° | - | - |
| 1778008847 | 27.22° C | 20% | 1005.4 hPa | 0 mm | 7.15 m/s, 257° | - | - |
| 1778008543 | 27.22° C | 21% | 1005.4 hPa | 0 mm | 5.81 m/s, 198° | - | - |
| 1778008243 | 26.67° C | 24% | 1005.6 hPa | 0 mm | 5.36 m/s, 214° | - | - |
| 1778007941 | 26.67° C | 22% | 1005.8 hPa | 0 mm | 6.26 m/s, 233° | - | - |
| 1778007643 | 27.22° C | 22% | 1005.9 hPa | 0 mm | 5.81 m/s, 202° | - | - |
| 1778007340 | 27.22° C | 23% | 1005.7 hPa | 0 mm | 6.71 m/s, 226° | - | - |
| 1778007039 | 27.22° C | 23% | 1005.9 hPa | 0 mm | 4.92 m/s, 216° | - | - |
| 1778006739 | 27.22° C | 23% | 1005.8 hPa | 0 mm | 6.26 m/s, 256° | - | - |
| 1778006439 | 27.22° C | 23% | 1005.8 hPa | 0 mm | 4.92 m/s, 207° | - | - |
| 1778006135 | 27.22° C | 23% | 1006 hPa | 0 mm | 3.58 m/s, 235° | - | - |
| 1778005835 | 27.22° C | 22% | 1005.9 hPa | 0 mm | 5.81 m/s, 226° | - | - |
| 1778005533 | 27.22° C | 21% | 1006.1 hPa | 0 mm | 6.26 m/s, 264° | - | - |
| 1778005232 | 27.22° C | 24% | 1006.2 hPa | 0 mm | 4.92 m/s, 281° | - | - |
| 1778004932 | 26.67° C | 25% | 1006.2 hPa | 0 mm | 3.58 m/s, 273° | - | - |
| 1778004628 | 26.67° C | 25% | 1006.2 hPa | 0 mm | 5.81 m/s, 236° | - | - |
| 1778004327 | 26.67° C | 25% | 1006.1 hPa | 0 mm | 5.81 m/s, 249° | - | - |
| 1778004035 | 26.67° C | 25% | 1006.3 hPa | 0 mm | 5.36 m/s, 266° | - | - |
| 1778003726 | 26.67° C | 25% | 1006.4 hPa | 0 mm | 5.81 m/s, 223° | - | - |
| 1778003424 | 26.11° C | 26% | 1006.5 hPa | 0 mm | 4.92 m/s, 221° | - | - |
* Rain latest hour (hover to see other rain measurements)
** Current wind speed in m/s (hover to see current wind gust speed)